Terminal Aerodrome Forecast
Issued by NWS

Home | Current Version | Previous Version | Text Only | Print | Product List | Glossary On
Versions: 1 2 3 4 5 6 7 8 9 10 11 12 13 14 15 16 17 18 19 20 21 22 23 24 25 26 27 28 29
000
FTUS41 KBOX 292344 AAA
TAFHYA
TAF AMD
KHYA 292344Z 3000/3024 26013G20KT P6SM BKN080
     FM300200 30011KT P6SM BKN080
     FM300800 36010KT P6SM SCT100
     FM301900 08008KT P6SM SCT080
     FM302000 11008KT P6SM BKN070=

USA.gov is the U.S. government's official web portal to all federal, state and local government web resources and services.